createdAt,value
2018-02-09T00:01:54.557Z,129.57
2018-02-09T00:04:22.115Z,130.40
2018-02-09T00:06:49.779Z,121.28
2018-02-09T00:09:17.458Z,121.45
2018-02-09T00:11:45.036Z,144.18
2018-02-09T00:14:12.626Z,137.25
2018-02-09T00:16:41.015Z,138.85
2018-02-09T00:19:08.573Z,132.45
2018-02-09T00:21:37.097Z,143.00
2018-02-09T00:24:04.653Z,128.25
2018-02-09T00:26:32.194Z,141.65
2018-02-09T00:28:59.767Z,121.97
2018-02-09T00:31:27.309Z,151.07
2018-02-09T00:33:54.824Z,133.30
2018-02-09T00:36:22.374Z,122.65
2018-02-09T00:38:49.938Z,126.70
2018-02-09T00:41:18.383Z,131.70
2018-02-09T00:43:45.971Z,128.43
2018-02-09T00:46:13.487Z,129.12
2018-02-09T00:48:41.884Z,135.15
2018-02-09T00:51:10.348Z,128.77
2018-02-09T00:53:37.874Z,113.47
2018-02-09T00:56:06.288Z,142.68
2018-02-09T00:58:33.818Z,133.68
2018-02-09T01:01:02.159Z,127.15
2018-02-09T01:03:29.713Z,121.85
2018-02-09T01:05:57.269Z,112.82
2018-02-09T01:08:24.822Z,133.23
2018-02-09T01:10:52.380Z,124.68
2018-02-09T01:13:20.014Z,128.77
2018-02-09T01:15:47.561Z,130.70
2018-02-09T01:18:15.078Z,122.57
2018-02-09T01:20:42.640Z,134.63
2018-02-09T01:23:10.596Z,125.28
2018-02-09T01:25:38.179Z,138.55
2018-02-09T01:28:05.753Z,127.38
2018-02-09T01:30:34.084Z,122.10
2018-02-09T01:33:01.630Z,131.90
2018-02-09T01:35:29.238Z,132.93
2018-02-09T01:37:56.943Z,136.98
2018-02-09T01:40:24.555Z,129.73
2018-02-09T01:42:52.267Z,132.48
2018-02-09T01:45:19.840Z,131.48
2018-02-09T01:47:47.475Z,140.18
2018-02-09T01:50:15.898Z,136.50
2018-02-09T01:52:43.468Z,137.68
2018-02-09T01:55:11.533Z,131.87
2018-02-09T01:57:39.062Z,131.00
2018-02-09T02:00:06.580Z,137.27
2018-02-09T02:02:34.893Z,136.07
2018-02-09T02:05:02.413Z,134.73
2018-02-09T02:07:29.987Z,130.32
2018-02-09T02:09:58.500Z,141.90
2018-02-09T02:12:26.031Z,136.70
2018-02-09T02:14:53.550Z,136.15
2018-02-09T02:17:21.145Z,128.95
2018-02-09T02:19:49.497Z,130.10
2018-02-09T02:22:17.069Z,136.60
2018-02-09T02:24:45.381Z,125.45
2018-02-09T02:27:12.932Z,123.95
2018-02-09T02:29:40.484Z,129.75
2018-02-09T02:32:09.166Z,125.40
2018-02-09T02:34:37.480Z,126.47
2018-02-09T02:37:05.127Z,123.50
2018-02-09T02:39:42.613Z,122.25
2018-02-09T02:42:10.166Z,124.62
2018-02-09T02:44:37.755Z,136.18
2018-02-09T02:47:05.355Z,131.63
2018-02-09T02:49:32.919Z,130.73
2018-02-09T02:52:01.293Z,126.75
2018-02-09T02:54:28.950Z,127.40
2018-02-09T02:56:56.529Z,141.43
2018-02-09T02:59:24.811Z,119.47
2018-02-09T03:01:53.201Z,122.85
2018-02-09T03:04:20.721Z,150.98
2018-02-09T03:06:48.262Z,122.95
2018-02-09T03:09:15.887Z,151.68
2018-02-09T03:11:43.453Z,129.57
2018-02-09T03:14:10.975Z,129.70
2018-02-09T03:16:39.341Z,138.68
2018-02-09T03:19:06.900Z,132.18
2018-02-09T03:21:34.528Z,139.02
2018-02-09T03:24:02.072Z,128.25
2018-02-09T03:26:29.643Z,146.43
2018-02-09T03:28:57.172Z,133.87
2018-02-09T03:31:24.776Z,133.10
2018-02-09T03:33:52.370Z,134.68
2018-02-09T03:36:20.716Z,139.77
2018-02-09T03:38:48.267Z,133.37
2018-02-09T03:41:15.859Z,137.80
2018-02-09T03:43:43.434Z,143.75
2018-02-09T03:46:11.003Z,131.63
2018-02-09T03:48:38.581Z,136.18
2018-02-09T03:51:06.200Z,134.27
2018-02-09T03:53:33.755Z,143.37
2018-02-09T03:56:01.309Z,136.35
2018-02-09T03:58:29.622Z,134.75
2018-02-09T04:00:57.308Z,135.12
2018-02-09T04:03:24.869Z,131.27
2018-02-09T04:05:52.467Z,141.80
2018-02-09T04:08:19.989Z,128.40
2018-02-09T04:10:47.567Z,126.07
2018-02-09T04:13:15.108Z,132.05
2018-02-09T04:15:42.756Z,145.90
2018-02-09T04:18:10.335Z,119.15
2018-02-09T04:20:37.944Z,133.60
2018-02-09T04:23:09.331Z,136.35
2018-02-09T04:25:36.893Z,119.57
2018-02-09T04:28:04.484Z,133.68
2018-02-09T04:30:32.226Z,120.22
2018-02-09T04:32:59.743Z,126.53
2018-02-09T04:35:28.185Z,138.00
2018-02-09T04:37:55.751Z,132.75
2018-02-09T04:40:23.295Z,132.48
2018-02-09T04:42:50.952Z,145.15
2018-02-09T04:45:18.488Z,125.62
2018-02-09T04:47:46.363Z,118.87
2018-02-09T04:50:14.055Z,132.15
2018-02-09T04:52:41.595Z,136.95
2018-02-09T04:55:09.148Z,124.65
2018-02-09T04:57:36.706Z,127.85
2018-02-09T05:00:04.288Z,119.22
2018-02-09T05:02:31.825Z,131.15
2018-02-09T05:04:59.486Z,123.00
2018-02-09T05:07:27.202Z,131.30
2018-02-09T05:09:54.778Z,116.43
2018-02-09T05:12:23.054Z,120.57
2018-02-09T05:14:51.385Z,119.22
2018-02-09T05:17:19.026Z,118.50
2018-02-09T05:19:46.568Z,123.65
2018-02-09T05:22:14.131Z,128.45
2018-02-09T05:24:41.710Z,115.70
2018-02-09T05:27:09.243Z,122.25
2018-02-09T05:29:36.823Z,117.85
2018-02-09T05:32:04.355Z,131.32
2018-02-09T05:34:31.934Z,120.30
2018-02-09T05:36:59.484Z,123.20
2018-02-09T05:39:27.060Z,126.97
2018-02-09T05:41:54.594Z,121.37
2018-02-09T05:44:22.159Z,120.18
2018-02-09T05:46:49.840Z,121.10
2018-02-09T05:49:17.384Z,117.25
2018-02-09T05:51:45.018Z,126.07
2018-02-09T05:54:13.333Z,122.20
2018-02-09T05:56:40.943Z,123.40
2018-02-09T05:59:09.431Z,115.82
2018-02-09T06:01:36.958Z,117.57
2018-02-09T06:04:04.504Z,120.93
2018-02-09T06:06:32.139Z,130.55
2018-02-09T06:08:59.779Z,113.12
2018-02-09T06:11:28.091Z,129.30
2018-02-09T06:13:55.652Z,122.47
2018-02-09T06:16:23.258Z,112.37
2018-02-09T06:18:50.870Z,134.30
2018-02-09T06:21:18.403Z,136.20
2018-02-09T06:23:46.003Z,126.53
2018-02-09T06:26:13.648Z,125.97
2018-02-09T06:28:41.218Z,129.70
2018-02-09T06:31:08.773Z,131.10
2018-02-09T06:33:36.377Z,130.87
2018-02-09T06:36:03.981Z,116.53
2018-02-09T06:38:31.522Z,125.97
2018-02-09T06:41:00.320Z,122.55
2018-02-09T06:43:27.874Z,130.37
2018-02-09T06:45:56.588Z,128.90
2018-02-09T06:48:24.109Z,126.87
2018-02-09T06:50:51.692Z,114.65
2018-02-09T06:53:19.238Z,124.18
2018-02-09T06:55:46.814Z,112.82
2018-02-09T06:58:14.476Z,126.15
2018-02-09T07:00:42.020Z,135.63
2018-02-09T07:03:09.556Z,118.30
2018-02-09T07:05:37.110Z,138.20
2018-02-09T07:08:04.636Z,132.87
2018-02-09T07:10:32.264Z,131.12
2018-02-09T07:12:59.801Z,126.12
2018-02-09T07:15:28.933Z,127.18
2018-02-09T07:17:56.475Z,131.12
2018-02-09T07:20:24.078Z,145.85
2018-02-09T07:22:51.694Z,114.97
2018-02-09T07:25:19.392Z,120.00
2018-02-09T07:27:47.035Z,125.62
2018-02-09T07:30:14.627Z,127.60
2018-02-09T07:32:42.168Z,120.72
2018-02-09T07:35:09.760Z,124.95
2018-02-09T07:37:38.840Z,128.20
2018-02-09T07:40:06.391Z,130.20
2018-02-09T07:42:34.175Z,118.00
2018-02-09T07:45:02.515Z,119.68
2018-02-09T07:47:30.094Z,113.85
2018-02-09T07:49:57.634Z,118.57
2018-02-09T07:52:25.275Z,115.72
2018-02-09T07:54:52.849Z,131.18
2018-02-09T07:57:20.526Z,117.70
2018-02-09T07:59:48.118Z,113.20
2018-02-09T08:02:16.759Z,108.10
2018-02-09T08:04:44.284Z,116.85
2018-02-09T08:07:12.645Z,99.15
2018-02-09T08:09:40.165Z,105.50
2018-02-09T08:12:09.429Z,97.80
2018-02-09T08:14:37.845Z,93.68
2018-02-09T08:17:05.370Z,97.35
2018-02-09T08:19:32.938Z,104.40
2018-02-09T08:22:00.525Z,103.12
2018-02-09T08:24:28.539Z,114.37
2018-02-09T08:26:56.847Z,113.12
2018-02-09T08:29:24.450Z,95.75
2018-02-09T08:31:52.210Z,102.50
2018-02-09T08:34:19.832Z,104.87
2018-02-09T08:36:47.366Z,101.47
2018-02-09T08:39:16.645Z,114.15
2018-02-09T08:41:44.246Z,104.55
2018-02-09T08:44:11.828Z,100.97
2018-02-09T08:46:39.504Z,91.80
2018-02-09T08:49:07.108Z,91.25
2018-02-09T08:51:35.404Z,98.25
2018-02-09T08:54:03.027Z,102.93
2018-02-09T08:56:30.535Z,97.43
2018-02-09T08:58:58.100Z,94.37
2018-02-09T09:01:25.726Z,107.15
2018-02-09T09:03:54.122Z,104.05
2018-02-09T09:06:21.776Z,105.18
2018-02-09T09:08:49.343Z,107.22
2018-02-09T09:11:16.904Z,95.75
2018-02-09T09:13:44.492Z,104.53
2018-02-09T09:16:12.032Z,99.03
2018-02-09T09:18:39.683Z,95.07
2018-02-09T09:21:07.228Z,112.50
2018-02-09T09:23:35.665Z,96.43
2018-02-09T09:26:04.016Z,93.37
2018-02-09T09:28:31.582Z,96.45
2018-02-09T09:30:59.104Z,97.97
2018-02-09T09:33:26.676Z,105.32
2018-02-09T09:35:54.229Z,93.55
2018-02-09T09:38:21.774Z,91.32
2018-02-09T09:40:50.184Z,91.05
2018-02-09T09:43:17.730Z,97.37
2018-02-09T09:45:55.211Z,95.90
2018-02-09T09:48:22.813Z,93.43
2018-02-09T09:50:50.336Z,94.90
2018-02-09T09:53:18.039Z,94.53
2018-02-09T09:55:45.595Z,102.90
2018-02-09T09:58:13.123Z,93.95
2018-02-09T10:00:40.654Z,89.80
2018-02-09T10:03:09.000Z,101.35
2018-02-09T10:05:36.700Z,106.53
2018-02-09T10:08:05.014Z,90.78
2018-02-09T10:10:32.527Z,89.00
2018-02-09T10:13:00.879Z,99.85
2018-02-09T10:15:33.998Z,102.72
2018-02-09T10:18:03.729Z,101.80
2018-02-09T10:20:32.027Z,96.07
2018-02-09T10:22:59.763Z,88.43
2018-02-09T10:25:27.300Z,89.53
2018-02-09T10:27:55.876Z,92.30
2018-02-09T10:30:24.284Z,101.07
2018-02-09T10:32:51.950Z,91.70
2018-02-09T10:35:19.459Z,97.68
2018-02-09T10:37:46.970Z,93.22
2018-02-09T10:40:14.512Z,96.05
2018-02-09T10:42:42.039Z,102.43
2018-02-09T10:45:09.672Z,97.50
2018-02-09T10:47:37.217Z,99.80
2018-02-09T10:50:04.874Z,103.93
2018-02-09T10:52:32.416Z,91.57
2018-02-09T10:55:00.017Z,103.45
2018-02-09T10:57:27.556Z,100.05
2018-02-09T10:59:55.181Z,98.05
2018-02-09T11:02:23.449Z,101.93
2018-02-09T11:04:51.769Z,90.75
2018-02-09T11:07:19.284Z,106.12
2018-02-09T11:09:48.794Z,94.47
2018-02-09T11:12:27.031Z,98.62
2018-02-09T11:14:54.585Z,82.88
2018-02-09T11:17:22.116Z,95.90
2018-02-09T11:19:49.660Z,86.35
2018-02-09T11:22:17.259Z,92.82
2018-02-09T11:24:44.839Z,90.28
2018-02-09T11:27:12.380Z,100.20
2018-02-09T11:29:39.959Z,89.72
2018-02-09T11:32:07.514Z,87.93
2018-02-09T11:34:35.044Z,92.25
2018-02-09T11:37:03.321Z,87.03
2018-02-09T11:39:30.877Z,95.00
2018-02-09T11:41:59.229Z,92.43
2018-02-09T11:44:26.766Z,82.22
2018-02-09T11:46:54.352Z,82.03
2018-02-09T11:49:21.969Z,86.05
2018-02-09T11:51:49.487Z,86.43
2018-02-09T11:54:17.843Z,90.10
2018-02-09T11:56:45.376Z,93.70
2018-02-09T11:59:12.940Z,90.40
2018-02-09T12:01:40.472Z,87.43
2018-02-09T12:04:08.058Z,95.47
2018-02-09T12:06:35.923Z,86.40
2018-02-09T12:09:03.647Z,95.15
2018-02-09T12:11:31.170Z,98.00
2018-02-09T12:13:58.766Z,89.25
2018-02-09T12:16:28.196Z,92.50
2018-02-09T12:18:55.797Z,84.65
2018-02-09T12:21:23.333Z,88.65
2018-02-09T12:23:50.899Z,88.45
2018-02-09T12:26:18.426Z,85.35
2018-02-09T12:28:46.020Z,81.12
2018-02-09T12:31:13.580Z,82.70
2018-02-09T12:33:41.153Z,85.00
2018-02-09T12:36:09.075Z,71.43
2018-02-09T12:38:36.686Z,78.90
2018-02-09T12:41:04.235Z,78.22
2018-02-09T12:43:32.737Z,73.53
2018-02-09T12:46:01.067Z,81.03
2018-02-09T12:48:28.621Z,76.18
2018-02-09T12:50:56.283Z,84.18
2018-02-09T12:53:24.030Z,89.35
2018-02-09T12:55:51.608Z,82.20
2018-02-09T12:58:19.171Z,81.85
2018-02-09T13:00:47.587Z,76.62
2018-02-09T13:03:15.146Z,78.37
2018-02-09T13:05:42.699Z,73.32
2018-02-09T13:08:10.290Z,66.25
2018-02-09T13:10:37.810Z,68.60
2018-02-09T13:13:07.360Z,70.78
2018-02-09T13:15:34.899Z,68.82
2018-02-09T13:18:04.524Z,74.68
2018-02-09T13:20:32.051Z,66.60
2018-02-09T13:23:11.632Z,73.05
2018-02-09T13:25:39.198Z,65.10
2018-02-09T13:28:06.743Z,67.15
2018-02-09T13:30:34.330Z,70.32
2018-02-09T13:33:13.860Z,62.25
2018-02-09T13:35:41.650Z,67.80
2018-02-09T13:38:09.246Z,61.53
2018-02-09T13:40:37.613Z,65.10
2018-02-09T13:43:05.173Z,66.37
2018-02-09T13:45:32.713Z,67.22
2018-02-09T13:48:00.308Z,70.47
2018-02-09T13:50:28.647Z,62.00
2018-02-09T13:52:56.319Z,69.43
2018-02-09T13:55:23.857Z,79.75
2018-02-09T13:57:51.473Z,76.07
2018-02-09T14:00:19.750Z,76.45
2018-02-09T14:02:48.194Z,78.30
2018-02-09T14:05:15.755Z,72.78
2018-02-09T14:07:43.301Z,73.03
2018-02-09T14:10:10.828Z,77.12
2018-02-09T14:12:38.608Z,67.87
2018-02-09T14:15:06.168Z,63.03
2018-02-09T14:17:33.683Z,64.97
2018-02-09T14:20:02.009Z,62.50
2018-02-09T14:22:29.523Z,58.65
2018-02-09T14:24:57.863Z,46.25
2018-02-09T14:27:25.392Z,53.50
2018-02-09T14:29:53.002Z,52.65
2018-02-09T14:32:20.516Z,53.87
2018-02-09T14:34:48.147Z,50.12
2018-02-09T14:37:16.622Z,53.95
2018-02-09T14:39:45.026Z,50.40
2018-02-09T14:42:12.534Z,47.08
2018-02-09T14:44:40.105Z,48.83
2018-02-09T14:47:09.006Z,47.42
2018-02-09T14:49:37.851Z,41.72
2018-02-09T14:52:05.481Z,44.22
2018-02-09T14:54:33.032Z,42.47
2018-02-09T14:57:00.582Z,50.38
2018-02-09T14:59:28.971Z,39.25
2018-02-09T15:01:56.493Z,40.00
2018-02-09T15:04:24.135Z,39.42
2018-02-09T15:06:51.697Z,38.92
2018-02-09T15:09:19.258Z,35.53
2018-02-09T15:11:46.878Z,39.03
2018-02-09T15:14:14.632Z,35.55
2018-02-09T15:16:42.966Z,37.85
2018-02-09T15:19:10.529Z,39.67
2018-02-09T15:21:38.213Z,40.45
2018-02-09T15:24:06.588Z,35.88
2018-02-09T15:26:34.882Z,40.08
2018-02-09T15:29:02.571Z,44.08
2018-02-09T15:31:30.104Z,39.95
2018-02-09T15:33:58.455Z,44.05
2018-02-09T15:36:26.115Z,34.25
2018-02-09T15:38:53.642Z,40.60
2018-02-09T15:41:21.218Z,36.08
2018-02-09T15:43:48.843Z,37.53
2018-02-09T15:46:16.401Z,40.05
2018-02-09T15:48:44.140Z,40.95
2018-02-09T15:51:12.500Z,40.83
2018-02-09T15:53:40.048Z,38.50
2018-02-09T15:56:08.896Z,39.45
2018-02-09T15:58:36.543Z,39.08
2018-02-09T16:01:04.099Z,35.00
2018-02-09T16:03:31.796Z,38.30
2018-02-09T16:05:59.624Z,44.50
2018-02-09T16:08:27.958Z,34.13
2018-02-09T16:10:55.502Z,37.97
2018-02-09T16:13:23.047Z,38.55
2018-02-09T16:15:50.621Z,44.00
2018-02-09T16:18:18.192Z,44.72
2018-02-09T16:20:45.768Z,35.88
2018-02-09T16:23:13.363Z,35.65
2018-02-09T16:25:40.876Z,39.97
2018-02-09T16:28:08.477Z,40.42
2018-02-09T16:30:36.002Z,40.35
2018-02-09T16:33:05.038Z,37.92
2018-02-09T16:35:32.564Z,39.33
2018-02-09T16:38:00.352Z,36.55
2018-02-09T16:40:27.907Z,42.15
2018-02-09T16:42:56.296Z,37.38
2018-02-09T16:45:23.842Z,37.25
2018-02-09T16:47:52.132Z,35.63
2018-02-09T16:50:19.794Z,37.38
2018-02-09T16:52:47.361Z,33.58
2018-02-09T16:55:14.957Z,40.60
2018-02-09T16:57:42.715Z,40.33
2018-02-09T17:00:10.300Z,40.83
2018-02-09T17:02:37.974Z,39.95
2018-02-09T17:05:05.552Z,43.80
2018-02-09T17:07:33.867Z,38.83
2018-02-09T17:10:01.522Z,44.60
2018-02-09T17:12:30.061Z,42.47
2018-02-09T17:14:58.398Z,37.70
2018-02-09T17:17:25.912Z,39.53
2018-02-09T17:19:53.447Z,40.83
2018-02-09T17:22:21.051Z,42.47
2018-02-09T17:24:48.699Z,39.03
2018-02-09T17:27:16.233Z,36.58
2018-02-09T17:29:43.904Z,37.90
2018-02-09T17:32:12.198Z,40.75
2018-02-09T17:34:39.783Z,34.33
2018-02-09T17:37:07.319Z,40.08
2018-02-09T17:39:34.881Z,35.85
2018-02-09T17:42:02.452Z,41.92
2018-02-09T17:44:30.108Z,46.20
2018-02-09T17:46:57.668Z,51.30
2018-02-09T17:49:25.288Z,40.70
2018-02-09T17:51:52.859Z,43.33
2018-02-09T17:54:21.314Z,50.25
2018-02-09T17:56:48.946Z,46.53
2018-02-09T17:59:16.608Z,38.78
2018-02-09T18:01:44.211Z,42.90
2018-02-09T18:04:11.763Z,47.00
2018-02-09T18:06:39.325Z,45.47
2018-02-09T18:09:06.922Z,42.75
2018-02-09T18:11:34.643Z,42.13
2018-02-09T18:14:02.353Z,47.03
2018-02-09T18:16:29.923Z,40.53
2018-02-09T18:18:57.431Z,43.28
2018-02-09T18:21:24.972Z,40.08
2018-02-09T18:23:52.524Z,42.22
2018-02-09T18:26:20.172Z,38.88
2018-02-09T18:28:47.713Z,45.12
2018-02-09T18:31:15.339Z,36.60
2018-02-09T18:33:42.950Z,44.22
2018-02-09T18:36:10.532Z,49.17
2018-02-09T18:38:38.087Z,45.70
2018-02-09T18:41:05.660Z,50.28
2018-02-09T18:43:33.859Z,38.33
2018-02-09T18:46:02.218Z,50.12
2018-02-09T18:48:29.739Z,41.42
2018-02-09T18:50:57.357Z,38.05
2018-02-09T18:53:25.724Z,43.70
2018-02-09T18:55:53.275Z,40.75
2018-02-09T18:58:30.720Z,40.95
2018-02-09T19:00:58.263Z,35.15
2018-02-09T19:03:25.797Z,40.35
2018-02-09T19:05:54.167Z,34.17
2018-02-09T19:08:21.775Z,36.13
2018-02-09T19:10:49.379Z,36.85
2018-02-09T19:13:16.911Z,40.08
2018-02-09T19:15:44.505Z,39.97
2018-02-09T19:18:12.721Z,33.40
2018-02-09T19:20:40.332Z,33.40
2018-02-09T19:23:07.852Z,28.45
2018-02-09T19:25:35.510Z,35.33
2018-02-09T19:28:03.118Z,35.00
2018-02-09T19:30:30.729Z,32.00
2018-02-09T19:32:58.714Z,36.00
2018-02-09T19:35:26.288Z,39.40
2018-02-09T19:37:53.802Z,33.97
2018-02-09T19:40:21.496Z,36.03
2018-02-09T19:42:49.146Z,41.25
2018-02-09T19:45:16.733Z,32.33
2018-02-09T19:47:44.363Z,30.02
2018-02-09T19:50:11.908Z,32.55
2018-02-09T19:52:39.456Z,40.20
2018-02-09T19:55:07.034Z,35.25
2018-02-09T19:57:34.560Z,36.00
2018-02-09T20:00:02.935Z,33.47
2018-02-09T20:02:30.490Z,42.95
2018-02-09T20:04:58.042Z,36.95
2018-02-09T20:07:25.614Z,33.80
2018-02-09T20:09:53.164Z,37.95
2018-02-09T20:12:20.903Z,37.75
2018-02-09T20:14:48.535Z,40.03
2018-02-09T20:17:16.206Z,42.25
2018-02-09T20:19:43.772Z,41.28
2018-02-09T20:22:11.527Z,41.13
2018-02-09T20:24:39.227Z,40.53
2018-02-09T20:27:06.785Z,41.55
2018-02-09T20:29:34.332Z,41.75
2018-02-09T20:32:01.886Z,35.10
2018-02-09T20:34:29.464Z,33.92
2018-02-09T20:36:57.003Z,37.40
2018-02-09T20:39:24.536Z,38.35
2018-02-09T20:41:52.098Z,39.75
2018-02-09T20:44:19.929Z,49.35
2018-02-09T20:46:47.532Z,46.50
2018-02-09T20:49:15.069Z,42.47
2018-02-09T20:51:44.379Z,47.30
2018-02-09T20:54:11.987Z,41.88
2018-02-09T20:56:39.580Z,44.05
2018-02-09T20:59:07.182Z,43.17
2018-02-09T21:01:34.765Z,46.67
2018-02-09T21:04:02.301Z,44.67
2018-02-09T21:06:29.851Z,41.28
2018-02-09T21:08:57.940Z,39.13
2018-02-09T21:11:25.616Z,37.75
2018-02-09T21:13:56.520Z,42.97
2018-02-09T21:16:24.188Z,41.85
2018-02-09T21:18:52.678Z,46.03
2018-02-09T21:21:20.309Z,46.40
2018-02-09T21:23:48.873Z,53.10
2018-02-09T21:26:17.227Z,46.13
2018-02-09T21:28:44.766Z,51.13
2018-02-09T21:31:12.383Z,48.03
2018-02-09T21:33:40.919Z,43.87
2018-02-09T21:36:08.533Z,38.40
2018-02-09T21:38:36.114Z,50.85
2018-02-09T21:41:03.707Z,46.25
2018-02-09T21:43:31.312Z,52.67
2018-02-09T21:45:58.891Z,50.83
2018-02-09T21:48:27.576Z,48.83
2018-02-09T21:50:55.321Z,47.70
2018-02-09T21:53:24.686Z,44.92
2018-02-09T21:55:52.274Z,54.03
2018-02-09T21:58:20.602Z,44.95
2018-02-09T22:00:48.206Z,50.72
2018-02-09T22:03:16.539Z,51.30
2018-02-09T22:05:45.048Z,47.70
2018-02-09T22:08:12.591Z,48.80
2018-02-09T22:10:40.198Z,54.33
2018-02-09T22:13:17.684Z,55.05
2018-02-09T22:15:48.491Z,43.92
2018-02-09T22:18:16.997Z,45.53
2018-02-09T22:20:45.318Z,53.03
2018-02-09T22:23:12.897Z,47.95
2018-02-09T22:25:40.533Z,45.47
2018-02-09T22:28:08.058Z,53.92
2018-02-09T22:30:36.398Z,49.35
2018-02-09T22:33:04.057Z,46.67
2018-02-09T22:35:32.569Z,46.83
2018-02-09T22:38:00.296Z,43.53
2018-02-09T22:40:27.912Z,46.35
2018-02-09T22:42:56.270Z,50.38
2018-02-09T22:45:23.862Z,53.30
2018-02-09T22:47:51.415Z,49.00
2018-02-09T22:50:18.997Z,45.28
2018-02-09T22:52:46.655Z,58.42
2018-02-09T22:55:14.246Z,48.13
2018-02-09T22:57:41.976Z,53.40
2018-02-09T23:00:09.548Z,42.42
2018-02-09T23:02:37.147Z,52.35
2018-02-09T23:05:06.039Z,49.33
2018-02-09T23:07:33.714Z,47.30
2018-02-09T23:10:01.227Z,48.67
2018-02-09T23:12:30.078Z,44.42
2018-02-09T23:14:57.692Z,49.70
2018-02-09T23:17:25.263Z,45.90
2018-02-09T23:19:54.931Z,44.85
2018-02-09T23:22:22.523Z,46.17
2018-02-09T23:24:50.878Z,47.22
2018-02-09T23:27:20.290Z,41.90
2018-02-09T23:29:48.426Z,45.83
2018-02-09T23:32:16.924Z,55.25
2018-02-09T23:34:44.571Z,54.45
2018-02-09T23:37:12.132Z,46.67
2018-02-09T23:39:40.071Z,49.58
2018-02-09T23:42:07.668Z,56.45
2018-02-09T23:44:35.236Z,49.58
2018-02-09T23:47:02.836Z,45.17
2018-02-09T23:49:30.647Z,50.60
2018-02-09T23:51:58.182Z,43.13
2018-02-09T23:54:26.548Z,45.67
2018-02-09T23:56:54.512Z,45.65
2018-02-09T23:59:22.208Z,46.22
